Taunton, New York
Current Conditions -  °F | °C
As of 4:54 PM on Sunday 23 Nov 2014 (Local Time) from KSYR Reporting Station
Overcast Overcast  
Wind Chill: 51°   Ceiling: 6500
Heat Index: 51°   Visibility: 10mi
Dew Point: 40°   Wind: 8mph
Humidity: 66%   Direction: 120°ESE
Pressure: 29.98"   Gusts: NA
Location:  43.0396°N, 76.2224°W
Report Text: KSYR 232154Z 12007KT 10SM BKN065 OVC090 11/04 A2998 RMK AO2 RAE02 SLP152 P0000 T01060044 $
Loading
Personal Weather Stations






























Interactive Weather Map New forecast layout! Learn more

10-Day Weather Forecast

Advertisements
Track Severe Weather on mobile